createdAt,value
2023-01-11T00:02:07.805Z,27.00
2023-01-11T00:04:58.229Z,27.20
2023-01-11T00:07:47.214Z,25.70
2023-01-11T00:10:36.291Z,26.47
2023-01-11T00:13:25.475Z,27.70
2023-01-11T00:16:14.796Z,29.23
2023-01-11T00:19:03.583Z,28.73
2023-01-11T00:21:53.919Z,29.50
2023-01-11T00:24:42.558Z,32.00
2023-01-11T00:27:31.919Z,30.93
2023-01-11T00:30:20.959Z,32.53
2023-01-11T00:33:12.990Z,32.60
2023-01-11T00:36:01.956Z,34.93
2023-01-11T00:38:55.607Z,34.70
2023-01-11T00:42:01.800Z,34.13
2023-01-11T00:45:07.984Z,35.50
2023-01-11T00:48:00.618Z,36.20
2023-01-11T00:50:49.334Z,36.70
2023-01-11T00:53:38.027Z,33.77
2023-01-11T00:56:28.089Z,36.53
2023-01-11T00:59:17.036Z,35.53
2023-01-11T01:02:06.044Z,35.67
2023-01-11T01:04:54.859Z,36.10
2023-01-11T01:07:43.567Z,34.10
2023-01-11T01:10:32.558Z,32.70
2023-01-11T01:13:39.751Z,32.30
2023-01-11T01:16:29.614Z,33.50
2023-01-11T01:19:18.465Z,35.47
2023-01-11T01:22:07.735Z,33.90
2023-01-11T01:24:56.385Z,32.83
2023-01-11T01:27:45.194Z,33.43
2023-01-11T01:30:35.237Z,32.00
2023-01-11T01:33:24.470Z,30.90
2023-01-11T01:36:13.234Z,30.80
2023-01-11T01:39:02.632Z,30.27
2023-01-11T01:41:51.423Z,31.07
2023-01-11T01:45:08.114Z,30.93
2023-01-11T01:48:01.740Z,30.50
2023-01-11T01:50:54.371Z,31.03
2023-01-11T01:53:46.785Z,31.80
2023-01-11T01:56:40.342Z,32.13
2023-01-11T01:59:32.424Z,32.13
2023-01-11T02:02:24.063Z,31.83
2023-01-11T02:05:15.109Z,33.80
2023-01-11T02:08:09.834Z,31.87
2023-01-11T02:10:58.842Z,31.47
2023-01-11T02:13:47.710Z,30.83
2023-01-11T02:16:36.584Z,29.90
2023-01-11T02:19:46.723Z,29.73
2023-01-11T02:23:10.698Z,28.23
2023-01-11T02:26:46.668Z,28.83
2023-01-11T02:29:50.730Z,28.03
2023-01-11T02:32:50.197Z,27.83
2023-01-11T02:35:45.253Z,28.07
2023-01-11T02:38:40.979Z,28.13
2023-01-11T02:41:57.350Z,29.90
2023-01-11T02:45:04.513Z,28.93
2023-01-11T02:47:59.331Z,30.43
2023-01-11T02:50:55.386Z,30.57
2023-01-11T02:53:47.525Z,30.57
2023-01-11T02:56:48.339Z,30.87
2023-01-11T02:59:38.401Z,27.13
2023-01-11T03:02:29.301Z,29.63
2023-01-11T03:05:18.239Z,28.60
2023-01-11T03:08:32.238Z,29.57
2023-01-11T03:11:54.146Z,30.30
2023-01-11T03:14:51.201Z,27.93
2023-01-11T03:17:51.330Z,30.77
2023-01-11T03:20:42.896Z,27.57
2023-01-11T03:23:38.650Z,27.17
2023-01-11T03:26:37.143Z,29.13
2023-01-11T03:29:32.432Z,28.70
2023-01-11T03:32:27.609Z,29.33
2023-01-11T03:35:25.209Z,28.67
2023-01-11T03:38:19.525Z,29.87
2023-01-11T03:41:13.497Z,29.83
2023-01-11T03:44:06.276Z,28.77
2023-01-11T03:46:59.512Z,28.40
2023-01-11T03:49:55.684Z,30.63
2023-01-11T03:52:47.167Z,28.57
2023-01-11T03:55:40.349Z,28.90
2023-01-11T03:58:29.820Z,28.00
2023-01-11T04:01:18.851Z,31.33
2023-01-11T04:04:08.288Z,32.13
2023-01-11T04:06:57.510Z,29.77
2023-01-11T04:09:48.210Z,30.57
2023-01-11T04:12:36.862Z,32.67
2023-01-11T04:15:25.680Z,32.13
2023-01-11T04:18:14.459Z,31.00
2023-01-11T04:21:03.211Z,31.63
2023-01-11T04:23:52.003Z,28.90
2023-01-11T04:26:42.276Z,25.57
2023-01-11T04:29:31.184Z,26.83
2023-01-11T04:32:19.841Z,28.77
2023-01-11T04:35:09.425Z,28.90
2023-01-11T04:38:01.539Z,28.73
2023-01-11T04:41:10.384Z,28.87
2023-01-11T04:43:59.378Z,28.40
2023-01-11T04:46:48.137Z,24.20
2023-01-11T04:49:36.831Z,24.83
2023-01-11T04:52:25.499Z,23.60
2023-01-11T04:55:14.173Z,23.77
2023-01-11T04:58:03.067Z,23.87
2023-01-11T05:00:53.233Z,22.87
2023-01-11T05:03:42.042Z,22.93
2023-01-11T05:06:30.797Z,22.43
2023-01-11T05:09:20.542Z,21.87
2023-01-11T05:12:09.325Z,21.10
2023-01-11T05:14:59.304Z,20.17
2023-01-11T05:17:49.462Z,19.03
2023-01-11T05:20:38.127Z,20.07
2023-01-11T05:23:26.829Z,18.40
2023-01-11T05:26:18.087Z,18.40
2023-01-11T05:29:08.361Z,17.80
2023-01-11T05:31:57.132Z,18.63
2023-01-11T05:34:47.346Z,18.43
2023-01-11T05:37:36.007Z,18.17
2023-01-11T05:40:24.796Z,17.10
2023-01-11T05:43:13.512Z,18.53
2023-01-11T05:46:01.773Z,18.80
2023-01-11T05:48:50.900Z,19.30
2023-01-11T05:51:42.034Z,16.40
2023-01-11T05:54:30.984Z,18.67
2023-01-11T05:57:22.165Z,16.23
2023-01-11T06:00:12.887Z,17.23
2023-01-11T06:03:02.815Z,18.03
2023-01-11T06:05:52.160Z,18.33
2023-01-11T06:08:42.923Z,17.50
2023-01-11T06:11:32.717Z,17.43
2023-01-11T06:14:21.715Z,16.40
2023-01-11T06:17:10.612Z,16.67
2023-01-11T06:20:00.096Z,16.87
2023-01-11T06:22:48.955Z,16.13
2023-01-11T06:25:39.105Z,17.17
2023-01-11T06:28:27.812Z,16.07
2023-01-11T06:31:17.949Z,14.47
2023-01-11T06:34:07.077Z,15.63
2023-01-11T06:36:55.950Z,14.73
2023-01-11T06:39:44.607Z,16.23
2023-01-11T06:42:36.552Z,16.43
2023-01-11T06:45:25.363Z,15.40
2023-01-11T06:48:14.266Z,16.33
2023-01-11T06:51:03.184Z,15.33
2023-01-11T06:53:51.993Z,15.93
2023-01-11T06:56:44.356Z,15.20
2023-01-11T06:59:38.967Z,16.90
2023-01-11T07:02:30.710Z,15.93
2023-01-11T07:05:25.451Z,16.53
2023-01-11T07:08:10.319Z,15.63
2023-01-11T07:10:59.142Z,15.97
2023-01-11T07:13:47.796Z,16.30
2023-01-11T07:16:38.075Z,16.10
2023-01-11T07:19:27.396Z,16.60
2023-01-11T07:22:16.386Z,16.33
2023-01-11T07:25:07.911Z,15.60
2023-01-11T07:28:01.265Z,15.47
2023-01-11T07:30:58.512Z,15.70
2023-01-11T07:33:49.746Z,16.27
2023-01-11T07:36:39.779Z,16.40
2023-01-11T07:39:42.160Z,15.87
2023-01-11T07:42:49.734Z,15.97
2023-01-11T07:45:45.857Z,13.90
2023-01-11T07:48:35.505Z,14.53
2023-01-11T07:51:25.993Z,13.67
2023-01-11T07:54:15.197Z,14.30
2023-01-11T07:57:03.968Z,14.97
2023-01-11T07:59:52.696Z,14.60
2023-01-11T08:02:41.563Z,14.00
2023-01-11T08:05:30.813Z,14.10
2023-01-11T08:08:21.161Z,14.60
2023-01-11T08:11:27.516Z,14.47
2023-01-11T08:14:34.017Z,15.30
2023-01-11T08:17:22.807Z,14.57
2023-01-11T08:20:12.690Z,15.70
2023-01-11T08:23:04.964Z,15.33
2023-01-11T08:25:59.161Z,14.43
2023-01-11T08:28:48.308Z,13.93
2023-01-11T08:31:41.227Z,15.20
2023-01-11T08:34:30.208Z,14.40
2023-01-11T08:37:19.172Z,14.23
2023-01-11T08:40:09.153Z,14.03
2023-01-11T08:42:59.527Z,13.70
2023-01-11T08:45:49.007Z,13.67
2023-01-11T08:48:38.159Z,14.47
2023-01-11T08:51:27.249Z,14.33
2023-01-11T08:54:17.771Z,15.47
2023-01-11T08:57:06.476Z,15.40
2023-01-11T08:59:56.737Z,14.30
2023-01-11T09:02:46.147Z,14.40
2023-01-11T09:05:34.975Z,13.73
2023-01-11T09:08:24.384Z,14.80
2023-01-11T09:11:26.988Z,14.13
2023-01-11T09:14:16.101Z,14.43
2023-01-11T09:17:06.357Z,14.13
2023-01-11T09:19:55.129Z,14.63
2023-01-11T09:22:47.119Z,14.23
2023-01-11T09:25:35.997Z,14.37
2023-01-11T09:28:24.926Z,14.50
2023-01-11T09:31:13.741Z,14.83
2023-01-11T09:34:04.992Z,14.10
2023-01-11T09:36:53.734Z,14.47
2023-01-11T09:39:43.608Z,15.83
2023-01-11T09:42:37.716Z,15.33
2023-01-11T09:45:30.627Z,15.03
2023-01-11T09:48:28.967Z,15.00
2023-01-11T09:51:20.777Z,15.37
2023-01-11T09:54:17.277Z,15.97
2023-01-11T09:57:16.024Z,15.53
2023-01-11T10:00:12.656Z,16.57
2023-01-11T10:03:24.908Z,16.37
2023-01-11T10:06:22.399Z,16.37
2023-01-11T10:18:28.162Z,15.50
2023-01-11T10:19:36.030Z,15.47
2023-01-11T10:22:33.674Z,15.30
2023-01-11T10:25:27.633Z,16.13
2023-01-11T10:28:28.265Z,16.87
2023-01-11T10:31:30.628Z,16.33
2023-01-11T10:34:42.547Z,16.63
2023-01-11T10:37:54.938Z,15.67
2023-01-11T10:41:07.026Z,16.30
2023-01-11T10:44:07.355Z,16.67
2023-01-11T10:46:59.867Z,17.23
2023-01-11T10:49:56.962Z,17.63
2023-01-11T10:52:54.955Z,17.60
2023-01-11T10:55:52.984Z,17.17
2023-01-11T10:59:04.217Z,16.00
2023-01-11T11:02:03.811Z,17.50
2023-01-11T11:05:07.541Z,16.90
2023-01-11T11:08:15.982Z,17.03
2023-01-11T11:11:14.538Z,17.13
2023-01-11T11:14:10.698Z,16.80
2023-01-11T11:17:12.405Z,17.33
2023-01-11T11:20:02.119Z,15.93
2023-01-11T11:22:52.374Z,15.73
2023-01-11T11:25:50.763Z,16.43
2023-01-11T11:28:39.895Z,16.63
2023-01-11T11:31:31.165Z,15.70
2023-01-11T11:34:23.489Z,16.03
2023-01-11T11:37:26.487Z,15.73
2023-01-11T11:40:31.098Z,15.30
2023-01-11T11:43:23.713Z,15.97
2023-01-11T11:46:25.574Z,16.20
2023-01-11T11:49:18.214Z,15.80
2023-01-11T11:52:10.456Z,15.00
2023-01-11T11:54:59.865Z,15.30
2023-01-11T11:57:49.332Z,15.10
2023-01-11T12:00:47.017Z,16.60
2023-01-11T12:03:36.289Z,16.50
2023-01-11T12:06:28.471Z,14.37
2023-01-11T12:09:29.004Z,14.33
2023-01-11T12:12:20.113Z,13.60
2023-01-11T12:15:24.236Z,13.63
2023-01-11T12:18:27.030Z,13.50
2023-01-11T12:21:21.376Z,13.47
2023-01-11T12:24:17.249Z,13.57
2023-01-11T12:27:15.246Z,13.43
2023-01-11T12:30:23.217Z,13.17
2023-01-11T12:33:33.463Z,13.63
2023-01-11T12:36:32.065Z,13.43
2023-01-11T12:39:30.179Z,13.47
2023-01-11T12:42:39.207Z,13.53
2023-01-11T12:45:40.086Z,13.83
2023-01-11T12:48:45.250Z,14.43
2023-01-11T12:51:46.588Z,14.23
2023-01-11T12:54:54.117Z,14.03
2023-01-11T12:58:00.058Z,14.80
2023-01-11T13:01:12.869Z,14.40
2023-01-11T13:04:37.347Z,14.60
2023-01-11T13:07:41.489Z,14.80
2023-01-11T13:10:38.048Z,13.60
2023-01-11T13:13:32.455Z,13.47
2023-01-11T13:16:28.188Z,14.40
2023-01-11T13:19:22.542Z,14.63
2023-01-11T13:22:16.280Z,15.50
2023-01-11T13:25:17.172Z,13.57
2023-01-11T13:28:24.373Z,13.97
2023-01-11T13:31:16.393Z,14.80
2023-01-11T13:34:08.694Z,14.83
2023-01-11T13:37:00.604Z,14.50
2023-01-11T13:39:53.403Z,14.30
2023-01-11T13:42:47.759Z,15.57
2023-01-11T13:45:42.277Z,15.77
2023-01-11T13:48:36.510Z,15.27
2023-01-11T13:51:32.553Z,15.30
2023-01-11T13:54:26.742Z,16.63
2023-01-11T13:57:23.428Z,15.83
2023-01-11T14:00:23.720Z,16.37
2023-01-11T14:03:28.253Z,15.60
2023-01-11T14:06:42.528Z,15.63
2023-01-11T14:09:54.735Z,16.30
2023-01-11T14:13:06.431Z,15.83
2023-01-11T14:16:05.193Z,15.40
2023-01-11T14:19:04.861Z,15.93
2023-01-11T14:22:12.214Z,15.63
2023-01-11T14:25:04.612Z,15.60
2023-01-11T14:28:15.513Z,14.97
2023-01-11T14:31:39.100Z,15.27
2023-01-11T14:34:52.297Z,16.10
2023-01-11T14:38:22.992Z,14.70
2023-01-11T14:41:40.429Z,15.97
2023-01-11T14:44:49.741Z,15.17
2023-01-11T14:48:02.406Z,16.30
2023-01-11T14:51:07.055Z,15.77
2023-01-11T14:54:02.966Z,14.93
2023-01-11T14:56:55.884Z,15.50
2023-01-11T14:59:44.704Z,15.83
2023-01-11T15:02:33.653Z,15.47
2023-01-11T15:05:35.544Z,17.00
2023-01-11T15:08:26.711Z,15.83
2023-01-11T15:11:36.997Z,16.73
2023-01-11T15:14:32.760Z,16.50
2023-01-11T15:17:43.910Z,17.83
2023-01-11T15:20:34.169Z,17.00
2023-01-11T15:23:23.367Z,17.70
2023-01-11T15:26:12.972Z,17.50
2023-01-11T15:29:03.972Z,16.63
2023-01-11T15:32:16.779Z,17.63
2023-01-11T15:35:30.724Z,17.60
2023-01-11T15:38:24.703Z,18.03
2023-01-11T15:41:35.577Z,17.47
2023-01-11T15:44:43.469Z,17.00
2023-01-11T15:47:45.292Z,17.90
2023-01-11T15:50:55.946Z,17.93
2023-01-11T15:54:06.534Z,17.93
2023-01-11T15:57:23.091Z,17.47
2023-01-11T16:00:34.564Z,18.10
2023-01-11T16:03:45.004Z,17.07
2023-01-11T16:06:45.046Z,18.10
2023-01-11T16:10:07.465Z,18.00
2023-01-11T16:13:16.547Z,16.50
2023-01-11T16:16:12.758Z,16.27
2023-01-11T16:19:08.421Z,17.33
2023-01-11T16:22:01.968Z,17.20
2023-01-11T16:24:57.087Z,17.83
2023-01-11T16:27:52.544Z,17.47
2023-01-11T16:30:43.572Z,17.13
2023-01-11T16:33:34.747Z,18.87
2023-01-11T16:36:24.952Z,17.93
2023-01-11T16:39:16.614Z,17.37
2023-01-11T16:42:08.099Z,17.90
2023-01-11T16:45:01.635Z,19.20
2023-01-11T16:48:05.820Z,19.17
2023-01-11T16:51:03.977Z,19.40
2023-01-11T16:53:58.232Z,18.53
2023-01-11T16:56:49.711Z,18.50
2023-01-11T16:59:40.295Z,19.43
2023-01-11T17:02:35.926Z,18.67
2023-01-11T17:05:26.117Z,19.90
2023-01-11T17:08:36.340Z,19.43
2023-01-11T17:11:29.705Z,18.60
2023-01-11T17:14:46.998Z,18.63
2023-01-11T17:17:38.704Z,18.40
2023-01-11T17:20:31.777Z,18.83
2023-01-11T17:23:21.060Z,18.87
2023-01-11T17:26:18.034Z,18.13
2023-01-11T17:29:08.278Z,17.17
2023-01-11T17:31:58.410Z,18.20
2023-01-11T17:34:51.363Z,17.93
2023-01-11T17:37:41.140Z,18.57
2023-01-11T17:40:33.102Z,18.80
2023-01-11T17:43:41.808Z,17.40
2023-01-11T17:46:31.030Z,18.40
2023-01-11T17:49:24.026Z,19.43
2023-01-11T17:52:21.343Z,18.80
2023-01-11T17:55:17.139Z,18.37
2023-01-11T17:58:21.027Z,18.43
2023-01-11T18:01:19.234Z,19.17
2023-01-11T18:04:20.664Z,19.40
2023-01-11T18:07:17.069Z,18.97
2023-01-11T18:10:06.546Z,17.43
2023-01-11T18:12:58.028Z,16.47
2023-01-11T18:15:48.823Z,17.00
2023-01-11T18:18:43.506Z,18.40
2023-01-11T18:21:41.284Z,15.90
2023-01-11T18:24:43.145Z,16.87
2023-01-11T18:27:33.524Z,16.13
2023-01-11T18:30:38.026Z,17.23
2023-01-11T18:33:29.438Z,17.67
2023-01-11T18:36:21.465Z,17.50
2023-01-11T18:39:12.537Z,17.37
2023-01-11T18:42:10.329Z,18.30
2023-01-11T18:44:59.419Z,17.37
2023-01-11T18:47:48.447Z,17.90
2023-01-11T18:50:38.279Z,18.33
2023-01-11T18:53:28.950Z,18.33
2023-01-11T18:56:17.916Z,18.37
2023-01-11T18:59:08.067Z,19.23
2023-01-11T19:02:16.108Z,18.57
2023-01-11T19:05:05.893Z,19.53
2023-01-11T19:07:54.651Z,17.23
2023-01-11T19:10:43.425Z,17.50
2023-01-11T19:13:32.576Z,16.40
2023-01-11T19:16:22.713Z,16.17
2023-01-11T19:19:11.771Z,15.00
2023-01-11T19:22:00.718Z,15.67
2023-01-11T19:24:49.719Z,16.70
2023-01-11T19:27:38.910Z,16.23
2023-01-11T19:30:27.729Z,15.37
2023-01-11T19:33:18.222Z,15.73
2023-01-11T19:36:07.950Z,16.20
2023-01-11T19:38:56.783Z,16.17
2023-01-11T19:42:02.406Z,15.57
2023-01-11T19:44:51.575Z,15.60
2023-01-11T19:47:40.989Z,15.00
2023-01-11T19:50:31.222Z,16.33
2023-01-11T19:53:20.317Z,15.37
2023-01-11T19:56:10.601Z,15.87
2023-01-11T19:58:59.421Z,16.07
2023-01-11T20:01:49.381Z,17.23
2023-01-11T20:04:38.452Z,17.00
2023-01-11T20:07:28.842Z,17.50
2023-01-11T20:10:18.421Z,17.00
2023-01-11T20:13:08.551Z,18.03
2023-01-11T20:15:57.587Z,18.13
2023-01-11T20:18:52.442Z,19.53
2023-01-11T20:21:41.298Z,19.13
2023-01-11T20:24:31.904Z,19.13
2023-01-11T20:27:20.743Z,18.97
2023-01-11T20:30:11.154Z,20.03
2023-01-11T20:33:00.337Z,19.47
2023-01-11T20:35:49.687Z,20.10
2023-01-11T20:38:38.620Z,20.90
2023-01-11T20:41:46.895Z,21.53
2023-01-11T20:44:36.029Z,22.17
2023-01-11T20:47:25.391Z,20.93
2023-01-11T20:50:14.540Z,21.67
2023-01-11T20:53:04.070Z,22.10
2023-01-11T20:55:53.212Z,21.93
2023-01-11T20:58:46.763Z,22.03
2023-01-11T21:01:35.969Z,22.20
2023-01-11T21:04:24.961Z,23.20
2023-01-11T21:07:14.208Z,24.23
2023-01-11T21:10:03.766Z,21.87
2023-01-11T21:12:54.368Z,22.77
2023-01-11T21:15:44.754Z,24.07
2023-01-11T21:18:33.728Z,23.70
2023-01-11T21:21:23.231Z,23.60
2023-01-11T21:24:15.168Z,23.23
2023-01-11T21:27:04.305Z,24.50
2023-01-11T21:29:53.204Z,23.87
2023-01-11T21:32:43.704Z,23.87
2023-01-11T21:35:34.883Z,24.00
2023-01-11T21:38:24.021Z,24.53
2023-01-11T21:41:15.217Z,25.40
2023-01-11T21:44:04.102Z,24.23
2023-01-11T21:46:55.160Z,24.57
2023-01-11T21:49:45.343Z,23.87
2023-01-11T21:52:35.295Z,25.17
2023-01-11T21:55:24.276Z,24.43
2023-01-11T21:58:16.367Z,26.90
2023-01-11T22:01:11.471Z,24.43
2023-01-11T22:04:00.858Z,24.70
2023-01-11T22:06:56.168Z,24.27
2023-01-11T22:10:03.711Z,25.17
2023-01-11T22:12:57.070Z,25.00
2023-01-11T22:15:46.093Z,24.87
2023-01-11T22:18:36.089Z,25.40
2023-01-11T22:21:25.559Z,24.37
2023-01-11T22:24:16.005Z,23.37
2023-01-11T22:27:04.958Z,23.17
2023-01-11T22:29:54.882Z,23.87
2023-01-11T22:32:43.769Z,24.80
2023-01-11T22:35:32.930Z,24.33
2023-01-11T22:38:21.847Z,23.40
2023-01-11T22:41:12.927Z,23.63
2023-01-11T22:44:01.999Z,23.67
2023-01-11T22:46:51.087Z,23.47
2023-01-11T22:49:39.996Z,23.93
2023-01-11T22:52:28.857Z,23.40
2023-01-11T22:55:17.959Z,23.77
2023-01-11T22:58:08.205Z,22.73
2023-01-11T23:00:57.214Z,24.17
2023-01-11T23:03:46.659Z,23.60
2023-01-11T23:06:36.870Z,24.17
2023-01-11T23:09:26.018Z,24.43
2023-01-11T23:12:32.152Z,23.50
2023-01-11T23:15:22.368Z,23.10
2023-01-11T23:18:11.530Z,23.83
2023-01-11T23:21:04.280Z,25.27
2023-01-11T23:23:53.540Z,24.73
2023-01-11T23:26:42.538Z,24.40
2023-01-11T23:29:32.105Z,24.03
2023-01-11T23:32:22.772Z,24.90
2023-01-11T23:35:11.988Z,24.83
2023-01-11T23:38:01.114Z,25.50
2023-01-11T23:41:15.769Z,24.77
2023-01-11T23:44:07.829Z,24.30
2023-01-11T23:47:14.167Z,23.80
2023-01-11T23:50:04.689Z,24.37
2023-01-11T23:52:55.282Z,26.60
2023-01-11T23:55:44.313Z,25.17
2023-01-11T23:58:33.318Z,26.03
